createdAt,value
2018-06-27T00:02:08.349Z,7.60
2018-06-27T00:04:35.965Z,9.07
2018-06-27T00:07:03.725Z,7.33
2018-06-27T00:09:31.304Z,7.83
2018-06-27T00:11:58.906Z,6.93
2018-06-27T00:14:26.504Z,7.00
2018-06-27T00:16:54.077Z,7.90
2018-06-27T00:19:22.507Z,7.53
2018-06-27T00:21:51.114Z,8.30
2018-06-27T00:24:18.804Z,8.03
2018-06-27T00:26:46.416Z,7.97
2018-06-27T00:29:14.121Z,9.20
2018-06-27T00:31:41.724Z,8.33
2018-06-27T00:34:09.341Z,8.53
2018-06-27T00:36:36.919Z,9.80
2018-06-27T00:39:07.299Z,9.80
2018-06-27T00:41:34.897Z,9.17
2018-06-27T00:44:02.552Z,9.13
2018-06-27T00:46:30.208Z,8.30
2018-06-27T00:48:57.821Z,8.53
2018-06-27T00:51:25.407Z,9.10
2018-06-27T00:53:59.353Z,9.00
2018-06-27T00:56:27.708Z,9.43
2018-06-27T00:58:55.302Z,11.53
2018-06-27T01:01:22.919Z,9.67
2018-06-27T01:03:50.496Z,10.67
2018-06-27T01:06:18.385Z,10.00
2018-06-27T01:08:45.984Z,9.93
2018-06-27T01:11:13.594Z,11.10
2018-06-27T01:13:41.229Z,9.90
2018-06-27T01:16:08.872Z,10.83
2018-06-27T01:18:36.473Z,11.00
2018-06-27T01:21:05.627Z,9.83
2018-06-27T01:23:33.212Z,9.20
2018-06-27T01:26:00.837Z,8.93
2018-06-27T01:28:28.432Z,9.73
2018-06-27T01:30:56.012Z,9.70
2018-06-27T01:33:24.235Z,11.70
2018-06-27T01:35:51.962Z,11.03
2018-06-27T01:38:19.557Z,11.20
2018-06-27T01:40:47.245Z,11.47
2018-06-27T01:43:14.884Z,11.70
2018-06-27T01:45:42.494Z,11.37
2018-06-27T01:48:10.085Z,10.20
2018-06-27T01:50:37.640Z,11.23
2018-06-27T01:53:05.276Z,10.73
2018-06-27T01:55:32.836Z,11.60
2018-06-27T01:58:00.426Z,12.70
2018-06-27T02:00:28.045Z,9.83
2018-06-27T02:02:55.612Z,10.63
2018-06-27T02:05:23.238Z,10.03
2018-06-27T02:07:50.825Z,10.10
2018-06-27T02:10:18.475Z,11.20
2018-06-27T02:12:46.066Z,9.87
2018-06-27T02:15:13.656Z,10.63
2018-06-27T02:17:41.746Z,12.50
2018-06-27T02:20:09.441Z,10.50
2018-06-27T02:22:37.044Z,11.40
2018-06-27T02:25:04.705Z,12.50
2018-06-27T02:27:32.449Z,10.70
2018-06-27T02:30:00.232Z,11.87
2018-06-27T02:32:27.819Z,12.50
2018-06-27T02:34:56.045Z,11.17
2018-06-27T02:37:24.145Z,12.93
2018-06-27T02:39:51.732Z,12.40
2018-06-27T02:42:20.349Z,12.07
2018-06-27T02:44:47.941Z,12.37
2018-06-27T02:47:15.558Z,11.60
2018-06-27T02:49:43.205Z,12.53
2018-06-27T02:52:10.821Z,12.60
2018-06-27T02:54:38.427Z,12.13
2018-06-27T02:57:06.013Z,11.87
2018-06-27T02:59:33.666Z,11.57
2018-06-27T03:02:01.234Z,11.77
2018-06-27T03:04:28.813Z,10.63
2018-06-27T03:06:56.417Z,11.83
2018-06-27T03:09:24.052Z,12.97
2018-06-27T03:11:51.688Z,12.13
2018-06-27T03:14:19.264Z,13.13
2018-06-27T03:16:46.860Z,13.20
2018-06-27T03:19:14.594Z,12.43
2018-06-27T03:21:42.185Z,11.60
2018-06-27T03:24:10.779Z,11.67
2018-06-27T03:26:39.069Z,10.50
2018-06-27T03:29:07.733Z,10.43
2018-06-27T03:31:35.370Z,10.77
2018-06-27T03:34:03.012Z,10.77
2018-06-27T03:36:30.624Z,11.00
2018-06-27T03:38:58.269Z,9.97
2018-06-27T03:41:25.937Z,10.07
2018-06-27T03:43:53.564Z,10.47
2018-06-27T03:46:21.187Z,9.10
2018-06-27T03:48:48.839Z,8.40
2018-06-27T03:51:17.331Z,11.00
2018-06-27T03:53:50.553Z,8.93
2018-06-27T03:56:18.120Z,10.40
2018-06-27T03:58:45.760Z,9.40
2018-06-27T04:01:13.334Z,10.70
2018-06-27T04:03:41.657Z,11.90
2018-06-27T04:06:10.184Z,10.97
2018-06-27T04:08:37.780Z,10.33
2018-06-27T04:11:05.512Z,10.20
2018-06-27T04:13:33.337Z,10.80
2018-06-27T04:16:01.005Z,10.50
2018-06-27T04:18:28.647Z,11.10
2018-06-27T04:20:56.448Z,10.60
2018-06-27T04:23:24.048Z,10.47
2018-06-27T04:25:51.727Z,8.57
2018-06-27T04:28:19.848Z,9.80
2018-06-27T04:30:47.465Z,9.00
2018-06-27T04:33:14.992Z,8.90
2018-06-27T04:35:43.177Z,9.33
2018-06-27T04:38:10.748Z,8.23
2018-06-27T04:40:38.350Z,9.67
2018-06-27T04:43:06.200Z,8.43
2018-06-27T04:45:33.765Z,9.10
2018-06-27T04:48:01.361Z,9.40
2018-06-27T04:50:28.921Z,9.50
2018-06-27T04:52:56.517Z,8.60
2018-06-27T04:55:24.157Z,7.77
2018-06-27T04:57:51.759Z,7.60
2018-06-27T05:00:19.360Z,8.77
2018-06-27T05:02:46.980Z,8.83
2018-06-27T05:05:14.489Z,9.10
2018-06-27T05:07:42.080Z,9.80
2018-06-27T05:10:09.693Z,9.07
2018-06-27T05:12:37.305Z,10.43
2018-06-27T05:15:05.091Z,10.00
2018-06-27T05:17:32.712Z,9.00
2018-06-27T05:20:00.316Z,9.10
2018-06-27T05:22:27.964Z,8.97
2018-06-27T05:24:56.164Z,9.77
2018-06-27T05:27:23.791Z,9.43
2018-06-27T05:29:51.376Z,10.10
2018-06-27T05:32:18.980Z,9.00
2018-06-27T05:34:46.551Z,10.10
2018-06-27T05:37:14.125Z,8.80
2018-06-27T05:39:42.445Z,9.50
2018-06-27T05:42:10.005Z,9.17
2018-06-27T05:44:37.601Z,9.77
2018-06-27T05:47:05.441Z,8.60
2018-06-27T05:49:33.067Z,10.10
2018-06-27T05:52:00.665Z,9.33
2018-06-27T05:54:28.260Z,8.53
2018-06-27T05:56:55.824Z,7.87
2018-06-27T05:59:23.667Z,7.67
2018-06-27T06:01:51.361Z,7.23
2018-06-27T06:04:18.963Z,7.87
2018-06-27T06:06:46.637Z,7.87
2018-06-27T06:09:14.752Z,7.30
2018-06-27T06:11:42.309Z,9.00
2018-06-27T06:14:09.888Z,6.90
2018-06-27T06:16:37.533Z,6.97
2018-06-27T06:19:05.156Z,7.07
2018-06-27T06:30:10.907Z,7.60
2018-06-27T06:32:38.581Z,7.30
2018-06-27T06:35:06.144Z,7.00
2018-06-27T06:37:33.745Z,6.70
2018-06-27T06:40:01.308Z,6.67
2018-06-27T06:42:28.904Z,8.20
2018-06-27T06:44:56.548Z,7.70
2018-06-27T06:47:24.377Z,6.93
2018-06-27T06:49:51.977Z,6.80
2018-06-27T06:52:19.597Z,6.87
2018-06-27T07:09:13.408Z,6.30
2018-06-27T07:11:41.360Z,6.80
2018-06-27T07:14:09.549Z,6.60
2018-06-27T07:16:37.501Z,5.70
2018-06-27T07:19:05.382Z,6.33
2018-06-27T07:21:32.962Z,6.17
2018-06-27T07:24:00.552Z,7.37
2018-06-27T07:26:28.137Z,5.90
2018-06-27T07:28:55.712Z,5.60
2018-06-27T07:31:23.281Z,5.50
2018-06-27T07:33:51.066Z,4.90
2018-06-27T07:36:18.664Z,5.10
2018-06-27T07:38:46.244Z,5.47
2018-06-27T07:41:13.929Z,5.90
2018-06-27T07:43:42.287Z,6.67
2018-06-27T07:46:10.719Z,5.27
2018-06-27T07:48:38.925Z,5.20
2018-06-27T07:51:06.545Z,5.90
2018-06-27T07:53:34.136Z,5.40
2018-06-27T07:56:01.764Z,4.90
2018-06-27T07:58:29.359Z,5.40
2018-06-27T08:00:57.069Z,5.60
2018-06-27T08:03:24.681Z,6.03
2018-06-27T08:05:52.325Z,5.40
2018-06-27T08:08:19.912Z,5.70
2018-06-27T08:10:47.541Z,5.20
2018-06-27T08:13:15.162Z,5.23
2018-06-27T08:15:42.737Z,5.73
2018-06-27T08:18:10.308Z,5.13
2018-06-27T08:20:37.893Z,5.10
2018-06-27T08:23:05.468Z,4.60
2018-06-27T08:25:33.069Z,4.80
2018-06-27T08:28:00.725Z,5.13
2018-06-27T08:30:29.340Z,5.00
2018-06-27T08:32:56.952Z,5.67
2018-06-27T08:35:24.545Z,4.60
2018-06-27T08:37:52.128Z,4.97
2018-06-27T08:40:19.689Z,4.90
2018-06-27T08:42:47.284Z,5.07
2018-06-27T08:45:14.849Z,4.47
2018-06-27T08:47:45.534Z,4.70
2018-06-27T08:50:18.217Z,4.87
2018-06-27T08:52:46.515Z,4.70
2018-06-27T08:55:14.670Z,4.33
2018-06-27T08:57:42.761Z,5.27
2018-06-27T09:00:12.431Z,4.60
2018-06-27T09:02:40.895Z,5.17
2018-06-27T09:05:16.493Z,5.37
2018-06-27T09:07:44.106Z,4.50
2018-06-27T09:10:11.640Z,4.40
2018-06-27T09:12:39.337Z,4.27
2018-06-27T09:15:06.945Z,3.90
2018-06-27T09:17:34.781Z,3.77
2018-06-27T09:20:02.865Z,4.30
2018-06-27T09:25:05.285Z,3.97
2018-06-27T09:27:33.836Z,3.90
2018-06-27T09:30:01.431Z,4.20
2018-06-27T09:32:29.037Z,4.10
2018-06-27T09:34:56.623Z,4.10
2018-06-27T09:37:24.244Z,5.07
2018-06-27T09:39:51.805Z,4.73
2018-06-27T09:42:20.033Z,5.30
2018-06-27T09:44:47.648Z,5.43
2018-06-27T09:47:15.345Z,5.10
2018-06-27T09:49:43.096Z,4.47
2018-06-27T09:52:10.854Z,4.13
2018-06-27T09:54:39.832Z,4.40
2018-06-27T09:57:08.615Z,3.97
2018-06-27T09:59:36.698Z,3.93
2018-06-27T10:02:05.415Z,2.90
2018-06-27T10:04:33.052Z,3.60
2018-06-27T10:07:00.726Z,4.63
2018-06-27T10:09:28.339Z,4.37
2018-06-27T10:11:55.928Z,3.70
2018-06-27T10:14:23.696Z,4.80
2018-06-27T10:16:51.339Z,4.17
2018-06-27T10:19:19.300Z,4.70
2018-06-27T10:21:47.092Z,4.53
2018-06-27T10:24:14.644Z,3.43
2018-06-27T10:26:42.285Z,3.57
2018-06-27T10:29:09.899Z,4.53
2018-06-27T10:31:37.485Z,4.63
2018-06-27T10:34:05.149Z,4.47
2018-06-27T10:36:32.748Z,4.03
2018-06-27T10:39:00.292Z,4.07
2018-06-27T10:41:27.872Z,3.83
2018-06-27T10:43:55.466Z,3.27
2018-06-27T10:46:23.126Z,3.27
2018-06-27T10:48:50.709Z,3.70
2018-06-27T10:51:18.543Z,3.83
2018-06-27T10:53:46.157Z,3.53
2018-06-27T10:56:13.741Z,4.30
2018-06-27T10:58:41.320Z,3.63
2018-06-27T11:01:08.963Z,3.07
2018-06-27T11:03:36.537Z,2.77
2018-06-27T11:06:04.388Z,3.00
2018-06-27T11:08:31.985Z,3.13
2018-06-27T11:10:59.554Z,3.23
2018-06-27T11:13:27.266Z,2.90
2018-06-27T11:15:54.841Z,3.17
2018-06-27T11:18:22.485Z,3.83
2018-06-27T11:20:50.065Z,3.30
2018-06-27T11:23:17.653Z,4.30
2018-06-27T11:25:45.214Z,3.47
2018-06-27T11:28:12.817Z,4.00
2018-06-27T11:30:40.610Z,3.00
2018-06-27T11:33:08.202Z,3.00
2018-06-27T11:35:35.794Z,3.03
2018-06-27T11:38:03.529Z,3.33
2018-06-27T11:40:31.589Z,2.53
2018-06-27T11:42:59.148Z,2.90
2018-06-27T11:45:26.816Z,2.40
2018-06-27T11:47:54.433Z,2.60
2018-06-27T11:50:22.053Z,2.47
2018-06-27T11:52:49.677Z,2.30
2018-06-27T11:55:17.249Z,2.80
2018-06-27T11:57:44.861Z,2.80
2018-06-27T12:00:12.471Z,4.37
2018-06-27T12:02:40.069Z,2.73
2018-06-27T12:05:08.785Z,2.40
2018-06-27T12:07:37.433Z,2.90
2018-06-27T12:10:05.233Z,2.43
2018-06-27T12:12:32.809Z,2.77
2018-06-27T12:15:00.426Z,2.80
2018-06-27T12:17:28.003Z,2.40
2018-06-27T12:19:55.612Z,2.50
2018-06-27T12:22:23.205Z,1.80
2018-06-27T12:24:50.769Z,1.90
2018-06-27T12:27:18.690Z,1.90
2018-06-27T12:29:46.265Z,1.43
2018-06-27T12:32:15.445Z,1.50
2018-06-27T12:34:43.005Z,1.70
2018-06-27T12:37:10.621Z,1.67
2018-06-27T12:39:38.204Z,1.90
2018-06-27T12:42:05.801Z,1.30
2018-06-27T12:44:33.871Z,1.30
2018-06-27T12:47:01.481Z,1.50
2018-06-27T12:49:29.080Z,1.60
2018-06-27T12:51:56.677Z,1.70
2018-06-27T12:54:24.336Z,1.57
2018-06-27T12:56:51.986Z,1.50
2018-06-27T12:59:19.589Z,1.60
2018-06-27T13:01:47.189Z,1.30
2018-06-27T13:04:14.761Z,2.00
2018-06-27T13:06:42.375Z,1.20
2018-06-27T13:09:10.773Z,1.73
2018-06-27T13:11:39.653Z,1.40
2018-06-27T13:14:07.725Z,2.00
2018-06-27T13:16:35.715Z,1.50
2018-06-27T13:19:03.361Z,1.67
2018-06-27T13:21:30.961Z,1.80
2018-06-27T13:23:58.581Z,1.73
2018-06-27T13:26:26.148Z,1.60
2018-06-27T13:28:54.689Z,1.33
2018-06-27T13:31:22.297Z,1.60
2018-06-27T13:33:50.884Z,1.50
2018-06-27T13:36:18.489Z,1.40
2018-06-27T13:38:46.676Z,1.00
2018-06-27T13:41:14.281Z,1.30
2018-06-27T13:43:41.881Z,1.57
2018-06-27T13:46:09.517Z,1.20
2018-06-27T13:48:37.089Z,1.43
2018-06-27T13:51:04.716Z,1.40
2018-06-27T13:53:32.307Z,1.60
2018-06-27T13:55:59.861Z,1.23
2018-06-27T13:58:27.448Z,1.13
2018-06-27T14:00:55.045Z,1.10
2018-06-27T14:03:22.621Z,1.13
2018-06-27T14:05:50.624Z,1.30
2018-06-27T14:08:18.182Z,1.27
2018-06-27T14:10:46.775Z,1.10
2018-06-27T14:13:14.383Z,1.20
2018-06-27T14:15:41.976Z,1.17
2018-06-27T14:18:09.581Z,1.20
2018-06-27T14:20:37.422Z,1.20
2018-06-27T14:23:04.905Z,1.07
2018-06-27T14:25:33.137Z,1.20
2018-06-27T14:28:00.696Z,1.40
2018-06-27T14:30:29.269Z,1.50
2018-06-27T14:32:56.902Z,1.60
2018-06-27T14:35:24.412Z,1.27
2018-06-27T14:37:52.088Z,1.30
2018-06-27T14:40:19.661Z,1.10
2018-06-27T14:42:47.863Z,1.37
2018-06-27T14:45:16.469Z,1.20
2018-06-27T14:47:44.106Z,1.70
2018-06-27T14:50:11.770Z,1.30
2018-06-27T14:52:39.381Z,1.17
2018-06-27T14:55:08.337Z,1.37
2018-06-27T14:57:36.689Z,1.37
2018-06-27T15:00:05.777Z,1.30
2018-06-27T15:02:33.830Z,1.80
2018-06-27T15:05:01.399Z,1.63
2018-06-27T15:07:30.020Z,1.63
2018-06-27T15:09:57.652Z,1.20
2018-06-27T15:12:25.301Z,1.53
2018-06-27T15:14:52.916Z,1.30
2018-06-27T15:17:21.192Z,1.60
2018-06-27T15:19:48.821Z,1.50
2018-06-27T15:22:16.437Z,1.80
2018-06-27T15:24:44.045Z,2.03
2018-06-27T15:27:11.693Z,4.30
2018-06-27T15:29:39.408Z,2.40
2018-06-27T15:32:07.043Z,3.60
2018-06-27T15:34:34.617Z,3.10
2018-06-27T15:37:02.234Z,2.90
2018-06-27T15:39:29.724Z,2.87
2018-06-27T15:41:57.360Z,2.30
2018-06-27T15:44:24.942Z,2.30
2018-06-27T15:46:52.574Z,3.07
2018-06-27T15:49:21.197Z,2.57
2018-06-27T15:51:48.804Z,1.90
2018-06-27T15:54:16.369Z,2.23
2018-06-27T15:56:43.984Z,2.57
2018-06-27T15:59:11.611Z,2.30
2018-06-27T16:01:39.212Z,2.20
2018-06-27T16:04:06.893Z,1.87
2018-06-27T16:06:34.597Z,1.80
2018-06-27T16:09:02.365Z,2.00
2018-06-27T16:11:30.775Z,2.13
2018-06-27T16:13:59.777Z,1.83
2018-06-27T16:16:27.386Z,2.10
2018-06-27T16:18:55.080Z,1.90
2018-06-27T16:21:22.653Z,2.57
2018-06-27T16:23:50.281Z,1.63
2018-06-27T16:26:17.937Z,3.10
2018-06-27T16:28:45.644Z,3.50
2018-06-27T16:31:13.237Z,2.30
2018-06-27T16:33:40.860Z,2.13
2018-06-27T16:36:08.459Z,1.70
2018-06-27T16:38:36.052Z,1.87
2018-06-27T16:41:03.745Z,1.60
2018-06-27T16:43:31.404Z,1.77
2018-06-27T16:45:59.001Z,1.80
2018-06-27T16:48:26.573Z,1.77
2018-06-27T16:50:54.221Z,1.80
2018-06-27T16:53:21.757Z,1.90
2018-06-27T16:55:50.400Z,1.43
2018-06-27T16:58:18.025Z,1.40
2018-06-27T17:00:46.346Z,1.30
2018-06-27T17:03:14.642Z,1.63
2018-06-27T17:05:42.264Z,1.37
2018-06-27T17:08:09.865Z,1.40
2018-06-27T17:10:37.688Z,1.43
2018-06-27T17:13:05.573Z,1.50
2018-06-27T17:15:34.221Z,1.40
2018-06-27T17:20:27.434Z,1.70
2018-06-27T17:22:55.020Z,1.80
2018-06-27T17:25:22.653Z,1.67
2018-06-27T17:27:50.845Z,1.67
2018-06-27T17:30:18.468Z,1.60
2018-06-27T17:32:46.024Z,2.00
2018-06-27T17:35:13.637Z,2.00
2018-06-27T17:37:41.308Z,2.30
2018-06-27T17:40:08.920Z,1.93
2018-06-27T17:42:36.609Z,2.13
2018-06-27T17:45:04.141Z,2.30
2018-06-27T17:47:31.817Z,2.30
2018-06-27T17:49:59.441Z,2.30
2018-06-27T17:52:27.041Z,2.10
2018-06-27T17:54:54.776Z,2.23
2018-06-27T17:57:22.300Z,1.67
2018-06-27T17:59:49.959Z,2.40
2018-06-27T18:02:17.576Z,1.97
2018-06-27T18:04:46.186Z,1.87
2018-06-27T18:07:13.777Z,2.17
2018-06-27T18:09:42.041Z,2.67
2018-06-27T18:12:09.703Z,2.40
2018-06-27T18:14:37.268Z,2.13
2018-06-27T18:17:04.950Z,2.40
2018-06-27T18:19:32.581Z,2.57
2018-06-27T18:22:00.970Z,2.47
2018-06-27T18:24:29.613Z,2.47
2018-06-27T18:26:57.232Z,2.80
2018-06-27T18:29:24.881Z,2.50
2018-06-27T18:31:52.497Z,1.90
2018-06-27T18:34:20.213Z,2.43
2018-06-27T18:36:47.888Z,2.53
2018-06-27T18:39:15.498Z,3.00
2018-06-27T18:41:43.669Z,2.70
2018-06-27T18:44:12.310Z,2.70
2018-06-27T18:46:41.021Z,2.63
2018-06-27T18:49:08.649Z,2.53
2018-06-27T18:51:36.328Z,2.73
2018-06-27T18:54:04.135Z,2.70
2018-06-27T18:56:31.794Z,2.33
2018-06-27T18:58:59.494Z,2.90
2018-06-27T19:01:27.121Z,3.13
2018-06-27T19:03:54.741Z,3.50
2018-06-27T19:06:22.380Z,3.20
2018-06-27T19:08:50.030Z,2.63
2018-06-27T19:11:17.733Z,3.07
2018-06-27T19:13:45.358Z,3.30
2018-06-27T19:16:13.137Z,2.30
2018-06-27T19:18:40.778Z,3.20
2018-06-27T19:21:08.492Z,2.67
2018-06-27T19:23:36.065Z,2.87
2018-06-27T19:26:04.392Z,2.93
2018-06-27T19:28:32.520Z,3.60
2018-06-27T19:31:00.158Z,3.30
2018-06-27T19:33:27.805Z,3.50
2018-06-27T19:35:55.973Z,3.40
2018-06-27T19:38:23.589Z,3.23
2018-06-27T19:40:51.283Z,3.50
2018-06-27T19:43:19.485Z,3.00
2018-06-27T19:45:47.069Z,3.40
2018-06-27T19:48:14.668Z,3.57
2018-06-27T19:50:42.248Z,3.63
2018-06-27T19:53:10.453Z,3.97
2018-06-27T19:55:38.059Z,3.47
2018-06-27T19:58:05.744Z,3.80
2018-06-27T20:00:33.387Z,4.20
2018-06-27T20:03:01.033Z,3.00
2018-06-27T20:05:28.661Z,3.70
2018-06-27T20:07:56.431Z,3.63
2018-06-27T20:10:23.881Z,4.07
2018-06-27T20:12:51.683Z,6.30
2018-06-27T20:15:19.276Z,13.50
2018-06-27T20:17:46.906Z,5.37
2018-06-27T20:20:14.545Z,3.53
2018-06-27T20:22:42.044Z,3.90
2018-06-27T20:25:09.650Z,3.90
2018-06-27T20:27:37.276Z,3.60
2018-06-27T20:30:06.061Z,4.07
2018-06-27T20:32:33.798Z,3.77
2018-06-27T20:35:01.417Z,3.63
2018-06-27T20:37:29.593Z,3.57
2018-06-27T20:39:57.268Z,4.20
2018-06-27T20:42:24.880Z,4.00
2018-06-27T20:44:52.545Z,3.70
2018-06-27T20:47:20.174Z,4.00
2018-06-27T20:49:47.781Z,4.47
2018-06-27T20:52:15.405Z,4.27
2018-06-27T20:54:44.076Z,5.07
2018-06-27T20:57:11.672Z,7.47
2018-06-27T20:59:39.259Z,4.50
2018-06-27T21:02:06.936Z,5.30
2018-06-27T21:04:34.568Z,4.17
2018-06-27T21:07:02.210Z,5.23
2018-06-27T21:09:29.850Z,5.30
2018-06-27T21:11:57.449Z,4.63
2018-06-27T21:14:25.031Z,4.97
2018-06-27T21:16:52.653Z,4.47
2018-06-27T21:19:20.904Z,4.10
2018-06-27T21:21:48.504Z,4.70
2018-06-27T21:24:16.073Z,5.40
2018-06-27T21:26:43.729Z,4.43
2018-06-27T21:29:11.378Z,5.60
2018-06-27T21:31:38.981Z,5.70
2018-06-27T21:34:06.645Z,6.20
2018-06-27T21:36:34.265Z,4.73
2018-06-27T21:39:01.859Z,5.97
2018-06-27T21:41:29.489Z,5.27
2018-06-27T21:43:57.096Z,4.80
2018-06-27T21:46:24.677Z,5.40
2018-06-27T21:48:52.288Z,5.60
2018-06-27T21:51:20.913Z,4.80
2018-06-27T21:53:48.524Z,5.60
2018-06-27T21:56:16.129Z,5.20
2018-06-27T21:58:43.717Z,5.30
2018-06-27T22:01:11.404Z,5.17
2018-06-27T22:03:39.042Z,6.20
2018-06-27T22:06:06.686Z,6.05
2018-06-27T22:08:34.309Z,5.33
2018-06-27T22:11:01.914Z,4.83
2018-06-27T22:13:29.533Z,5.30
2018-06-27T22:15:57.144Z,6.40
2018-06-27T22:18:24.776Z,5.80
2018-06-27T22:20:52.375Z,4.90
2018-06-27T22:23:20.368Z,5.63
2018-06-27T22:25:48.017Z,6.35
2018-06-27T22:28:15.673Z,5.20
2018-06-27T22:30:43.797Z,6.12
2018-06-27T22:33:11.424Z,4.73
2018-06-27T22:35:39.129Z,6.17
2018-06-27T22:38:06.800Z,6.17
2018-06-27T22:40:34.448Z,6.30
2018-06-27T22:43:02.714Z,5.67
2018-06-27T22:45:30.313Z,5.80
2018-06-27T22:47:57.916Z,5.80
2018-06-27T22:50:25.557Z,5.10
2018-06-27T22:52:53.164Z,5.23
2018-06-27T22:55:20.763Z,5.80
2018-06-27T22:57:49.077Z,5.20
2018-06-27T23:00:17.048Z,4.63
2018-06-27T23:02:44.646Z,5.40
2018-06-27T23:05:12.248Z,5.53
2018-06-27T23:07:39.843Z,5.63
2018-06-27T23:10:09.013Z,5.73
2018-06-27T23:12:36.636Z,5.80
2018-06-27T23:15:04.977Z,6.00
2018-06-27T23:17:32.587Z,5.43
2018-06-27T23:20:01.589Z,5.77
2018-06-27T23:22:39.964Z,5.30
2018-06-27T23:25:07.562Z,6.20
2018-06-27T23:27:35.253Z,4.53
2018-06-27T23:30:02.993Z,5.43
2018-06-27T23:32:30.613Z,5.87
2018-06-27T23:34:58.378Z,6.27
2018-06-27T23:37:25.994Z,5.67
2018-06-27T23:39:53.569Z,5.30
2018-06-27T23:42:22.204Z,5.10
2018-06-27T23:44:49.813Z,5.60
2018-06-27T23:47:17.470Z,5.40
2018-06-27T23:49:45.645Z,4.90
2018-06-27T23:52:13.416Z,4.83
2018-06-27T23:54:41.052Z,5.63
2018-06-27T23:57:10.236Z,4.73
2018-06-27T23:59:37.856Z,4.40
